Time;durP1;ratioP1;P1;durP2;ratioP2;P2;SDS_P1;SDS_P2;PMS_P1;PMS_P2;Temp;Humidity;BMP_temperature;BMP_pressure;BME280_temperature;BME280_humidity;BME280_pressure;Samples;Min_cycle;Max_cycle;Signal;HPM_P1;HPM_P2
2021/10/09 00:01:00;;;;;;;40.38;30.30;;;11.40;99.90;;;;;;5081702;28;39460;-77
2021/10/09 00:03:26;;;;;;;33.65;27.38;;;11.40;99.90;;;;;;5068691;28;39558;-77
2021/10/09 00:05:52;;;;;;;36.80;30.77;;;11.40;99.90;;;;;;5066152;28;39542;-77
2021/10/09 00:08:19;;;;;;;48.25;33.92;;;11.40;99.90;;;;;;5076067;28;37819;-77
2021/10/09 00:10:46;;;;;;;40.38;30.85;;;11.40;99.90;;;;;;5062238;28;39895;-77
2021/10/09 00:13:13;;;;;;;43.13;33.00;;;11.40;99.90;;;;;;5053771;28;38898;-77
2021/10/09 00:15:40;;;;;;;47.10;33.90;;;11.40;99.90;;;;;;5062000;28;39654;-77
2021/10/09 00:18:06;;;;;;;40.20;33.50;;;11.50;99.90;;;;;;5082183;28;37725;-78
2021/10/09 00:20:32;;;;;;;43.33;33.92;;;11.50;99.90;;;;;;5075367;28;38571;-77
2021/10/09 00:22:58;;;;;;;43.97;36.35;;;11.50;99.90;;;;;;5062233;28;39148;-77
2021/10/09 00:25:25;;;;;;;46.17;36.33;;;11.50;99.90;;;;;;5067597;28;38253;-77
2021/10/09 00:27:51;;;;;;;45.90;36.15;;;11.50;99.90;;;;;;5082936;28;38638;-78
2021/10/09 00:30:18;;;;;;;41.45;32.28;;;11.50;99.90;;;;;;5081929;28;39951;-77
2021/10/09 00:32:44;;;;;;;43.95;32.85;;;11.50;99.90;;;;;;5064372;28;38876;-78
2021/10/09 00:35:10;;;;;;;42.20;33.80;;;11.40;99.90;;;;;;5065963;28;37053;-77
2021/10/09 00:37:38;;;;;;;44.83;34.67;;;11.40;99.90;;;;;;5078266;28;37447;-77
2021/10/09 00:40:05;;;;;;;47.70;33.47;;;11.40;99.90;;;;;;5065049;28;40396;-76
2021/10/09 00:42:31;;;;;;;50.42;38.15;;;11.40;99.90;;;;;;5081555;28;39098;-78
2021/10/09 00:44:58;;;;;;;54.47;41.65;;;11.40;99.90;;;;;;5069242;28;37265;-77
2021/10/09 00:47:24;;;;;;;46.45;34.63;;;11.40;99.90;;;;;;5058996;28;38177;-77
2021/10/09 00:49:51;;;;;;;50.13;37.70;;;11.40;99.90;;;;;;5056206;28;40170;-77
2021/10/09 00:52:18;;;;;;;43.53;33.63;;;11.40;99.90;;;;;;5074930;28;38241;-77
2021/10/09 00:54:46;;;;;;;46.90;37.45;;;11.40;99.90;;;;;;5063246;28;38199;-78
2021/10/09 00:57:16;;;;;;;47.78;35.63;;;11.40;99.90;;;;;;5082245;28;37242;-77
2021/10/09 00:59:43;;;;;;;47.60;37.67;;;11.40;99.90;;;;;;5060725;28;38837;-77
2021/10/09 01:02:10;;;;;;;49.63;37.53;;;11.40;99.90;;;;;;5078199;28;38368;-77
2021/10/09 01:04:37;;;;;;;52.30;36.45;;;11.40;99.90;;;;;;5075361;28;38057;-77
2021/10/09 01:07:05;;;;;;;57.22;41.33;;;11.40;99.90;;;;;;5073069;28;37177;-77
2021/10/09 01:09:32;;;;;;;53.03;40.30;;;11.40;99.90;;;;;;5060282;28;40385;-77
2021/10/09 01:11:59;;;;;;;55.03;36.80;;;11.40;99.90;;;;;;5074296;28;39414;-78
2021/10/09 01:14:25;;;;;;;66.05;43.95;;;11.40;99.90;;;;;;5052582;28;39639;-77
2021/10/09 01:16:51;;;;;;;49.78;37.55;;;11.30;99.90;;;;;;5067075;28;37798;-77
2021/10/09 01:19:17;;;;;;;54.83;40.28;;;11.40;99.90;;;;;;5081541;28;38767;-77
2021/10/09 01:21:44;;;;;;;62.53;43.13;;;11.40;99.90;;;;;;5070112;28;38978;-76
2021/10/09 01:24:11;;;;;;;50.17;36.75;;;11.30;99.90;;;;;;5066491;28;36951;-77
2021/10/09 01:26:38;;;;;;;57.90;40.53;;;11.30;99.90;;;;;;5077059;28;37459;-77
2021/10/09 01:29:06;;;;;;;47.20;37.00;;;11.30;99.90;;;;;;5065531;28;39175;-77
2021/10/09 01:31:33;;;;;;;56.05;39.53;;;11.30;99.90;;;;;;5057691;28;39430;-77
2021/10/09 01:33:59;;;;;;;60.83;43.30;;;11.30;99.90;;;;;;5062768;28;39073;-78
2021/10/09 01:36:33;;;;;;;50.45;38.03;;;11.20;99.90;;;;;;5077499;28;35413;-77
2021/10/09 01:39:00;;;;;;;50.08;37.90;;;11.20;99.90;;;;;;5063826;28;40662;-77
2021/10/09 01:41:27;;;;;;;55.65;40.03;;;11.20;99.90;;;;;;5080180;28;47520;-76
2021/10/09 01:43:53;;;;;;;65.38;45.20;;;11.10;99.90;;;;;;5084939;28;37970;-77
2021/10/09 01:46:20;;;;;;;66.95;45.42;;;11.10;99.90;;;;;;5056825;28;38358;-77
2021/10/09 01:48:46;;;;;;;51.15;39.53;;;11.10;99.90;;;;;;5077175;28;38648;-77
2021/10/09 01:51:13;;;;;;;55.22;38.83;;;11.00;99.90;;;;;;5059649;28;38399;-76
2021/10/09 01:53:40;;;;;;;54.65;40.33;;;11.00;99.90;;;;;;5072735;28;37986;-77
2021/10/09 01:56:07;;;;;;;61.67;45.75;;;11.00;99.90;;;;;;5061316;28;38749;-77
2021/10/09 01:58:36;;;;;;;64.68;43.83;;;11.00;99.90;;;;;;5075990;28;39000;-77
2021/10/09 02:01:03;;;;;;;52.30;39.60;;;11.00;99.90;;;;;;5076510;28;39872;-77
2021/10/09 02:03:29;;;;;;;67.60;45.50;;;10.90;99.90;;;;;;5054181;28;39031;-77
2021/10/09 02:05:56;;;;;;;53.65;39.40;;;10.90;99.90;;;;;;5055338;28;38340;-77
2021/10/09 02:08:22;;;;;;;52.95;40.25;;;10.80;99.90;;;;;;5080317;28;39544;-77
2021/10/09 02:11:03;;;;;;;69.30;47.97;;;10.80;99.90;;;;;;5082838;27;39094;-77
2021/10/09 02:26:32;;;;;;;67.10;46.80;;;10.70;99.90;;;;;;5075535;28;49541;-78
2021/10/09 02:28:58;;;;;;;76.57;51.20;;;10.70;99.90;;;;;;5075634;28;39982;-78
2021/10/09 02:31:24;;;;;;;58.40;41.42;;;10.60;99.90;;;;;;5053211;28;38569;-78
2021/10/09 02:33:50;;;;;;;80.50;49.72;;;10.60;99.90;;;;;;5051495;28;39816;-77
2021/10/09 02:36:17;;;;;;;75.93;50.92;;;10.60;99.90;;;;;;5052748;28;39056;-78
2021/10/09 02:38:43;;;;;;;66.95;45.50;;;10.60;99.90;;;;;;5077779;28;39520;-78
2021/10/09 02:41:09;;;;;;;62.92;44.33;;;10.60;99.90;;;;;;5060773;28;38724;-78
2021/10/09 02:43:35;;;;;;;61.33;44.95;;;10.60;99.90;;;;;;5083634;28;37940;-78
2021/10/09 02:46:01;;;;;;;71.95;47.40;;;10.60;99.90;;;;;;5078175;28;37644;-76
2021/10/09 02:48:27;;;;;;;60.15;44.63;;;10.60;99.90;;;;;;5081395;28;39065;-77
2021/10/09 02:50:53;;;;;;;69.32;48.22;;;10.60;99.90;;;;;;5066273;28;38738;-77
2021/10/09 02:53:20;;;;;;;57.63;42.88;;;10.60;99.90;;;;;;5070580;28;38697;-77
2021/10/09 02:55:46;;;;;;;86.07;53.97;;;10.50;99.90;;;;;;5067649;28;37929;-77
2021/10/09 02:58:12;;;;;;;73.10;48.08;;;10.50;99.90;;;;;;5060707;28;39465;-79
2021/10/09 03:00:38;;;;;;;77.30;50.37;;;10.50;99.90;;;;;;5079990;28;38356;-79
2021/10/09 03:03:04;;;;;;;60.65;42.60;;;10.50;99.90;;;;;;5077446;28;37712;-78
2021/10/09 03:05:30;;;;;;;63.70;44.00;;;10.50;99.90;;;;;;5057450;28;38807;-77
2021/10/09 03:07:56;;;;;;;69.13;46.75;;;10.50;99.90;;;;;;5069037;28;40777;-78
2021/10/09 03:10:23;;;;;;;74.95;51.67;;;10.50;99.90;;;;;;5082479;28;39263;-78
2021/10/09 03:12:49;;;;;;;70.70;47.25;;;10.50;99.90;;;;;;5082567;28;38234;-78
2021/10/09 03:15:15;;;;;;;86.97;55.45;;;10.40;99.90;;;;;;5081263;28;37713;-78
2021/10/09 03:17:41;;;;;;;60.13;43.40;;;10.40;99.90;;;;;;5082916;28;39222;-78
2021/10/09 03:20:10;;;;;;;68.22;46.08;;;10.40;99.90;;;;;;5064818;28;39343;-77
2021/10/09 03:22:37;;;;;;;76.97;48.80;;;10.50;99.90;;;;;;5078752;28;38624;-78
2021/10/09 03:25:04;;;;;;;71.07;48.90;;;10.50;99.90;;;;;;5064672;28;36592;-78
2021/10/09 03:27:30;;;;;;;63.65;45.13;;;10.50;99.90;;;;;;5084264;28;47566;-78
2021/10/09 03:29:58;;;;;;;78.10;50.05;;;10.50;99.90;;;;;;5084448;28;39587;-78
2021/10/09 03:32:24;;;;;;;69.80;47.00;;;10.50;99.90;;;;;;5080764;28;38022;-78
2021/10/09 03:34:50;;;;;;;72.25;47.97;;;10.50;99.90;;;;;;5062042;28;38435;-78
2021/10/09 03:37:16;;;;;;;75.82;48.22;;;10.50;99.90;;;;;;5076773;28;38772;-79
2021/10/09 03:39:45;;;;;;;65.85;45.25;;;10.50;99.90;;;;;;5080834;28;38416;-78
2021/10/09 03:42:20;;;;;;;68.80;45.80;;;10.50;99.90;;;;;;5083647;28;38852;-78
2021/10/09 03:44:54;;;;;;;79.13;49.40;;;10.50;99.90;;;;;;5077902;28;37500;-78
2021/10/09 03:49:53;;;;;;;74.07;47.80;;;10.40;99.90;;;;;;5082531;28;38509;-78
2021/10/09 03:52:41;;;;;;;98.35;58.67;;;10.40;99.90;;;;;;5076624;28;38994;-79
2021/10/09 03:55:14;;;;;;;74.07;47.63;;;10.40;99.90;;;;;;5067481;28;37406;-78
2021/10/09 03:57:40;;;;;;;75.45;47.70;;;10.40;99.90;;;;;;5077588;28;41495;-78
2021/10/09 04:00:11;;;;;;;84.70;52.42;;;10.30;99.90;;;;;;5084581;28;38770;-78
2021/10/09 04:02:37;;;;;;;84.25;51.78;;;10.30;99.90;;;;;;5081556;28;38992;-78
2021/10/09 04:05:04;;;;;;;69.20;47.33;;;10.30;99.90;;;;;;5078224;28;37207;-78
2021/10/09 04:07:30;;;;;;;85.93;52.25;;;10.30;99.90;;;;;;5083758;28;49316;-78
2021/10/09 04:09:56;;;;;;;79.77;50.03;;;10.20;99.90;;;;;;5074468;28;38018;-78
2021/10/09 04:12:22;;;;;;;65.45;45.97;;;10.20;99.90;;;;;;5084889;28;37914;-78
2021/10/09 04:14:48;;;;;;;73.65;48.38;;;10.20;99.90;;;;;;5077508;28;38473;-78
2021/10/09 04:17:15;;;;;;;68.07;45.77;;;10.20;99.90;;;;;;5070743;28;39000;-78
2021/10/09 04:19:41;;;;;;;67.40;47.20;;;10.20;99.90;;;;;;5063869;28;39120;-78
2021/10/09 04:22:07;;;;;;;65.00;44.90;;;10.20;99.90;;;;;;5064170;28;38734;-78
2021/10/09 04:24:33;;;;;;;68.27;45.60;;;10.20;99.90;;;;;;5084595;28;37717;-78
2021/10/09 04:26:59;;;;;;;69.70;46.70;;;10.20;99.90;;;;;;5066206;28;40622;-78
2021/10/09 04:29:26;;;;;;;81.43;52.00;;;10.20;99.90;;;;;;5065365;28;38551;-78
2021/10/09 04:31:52;;;;;;;74.47;48.20;;;10.20;99.90;;;;;;5062112;28;39188;-78
2021/10/09 04:34:18;;;;;;;79.68;53.20;;;10.20;99.90;;;;;;5065311;28;39270;-78
2021/10/09 04:36:44;;;;;;;108.67;58.37;;;10.20;99.90;;;;;;5085097;28;39810;-78
2021/10/09 04:39:12;;;;;;;71.03;48.40;;;10.20;99.90;;;;;;5065272;28;38548;-78
2021/10/09 04:41:38;;;;;;;98.10;56.13;;;10.10;99.90;;;;;;5064641;28;37255;-78
2021/10/09 04:44:06;;;;;;;79.40;52.78;;;10.10;99.90;;;;;;5063689;28;37840;-78
2021/10/09 04:46:32;;;;;;;70.30;47.60;;;10.10;99.90;;;;;;5070138;28;39126;-78
2021/10/09 04:48:58;;;;;;;70.63;47.03;;;10.00;99.90;;;;;;5076949;28;38490;-78
2021/10/09 04:51:25;;;;;;;70.90;47.63;;;10.00;99.90;;;;;;5070706;28;38407;-78
2021/10/09 04:53:51;;;;;;;74.80;49.53;;;10.10;99.90;;;;;;5060892;28;39355;-77
2021/10/09 04:56:17;;;;;;;74.00;48.93;;;10.10;99.90;;;;;;5078198;28;40320;-77
2021/10/09 04:58:43;;;;;;;100.77;58.77;;;10.10;99.90;;;;;;5058775;28;41562;-78
2021/10/09 05:01:09;;;;;;;75.63;50.00;;;10.10;99.90;;;;;;5055692;28;38554;-77
2021/10/09 05:03:35;;;;;;;80.15;51.75;;;10.10;99.90;;;;;;5067385;28;37335;-77
2021/10/09 05:06:01;;;;;;;66.53;45.95;;;10.10;99.90;;;;;;5065930;28;37729;-77
2021/10/09 05:08:27;;;;;;;75.85;49.13;;;10.00;99.90;;;;;;5083377;28;39743;-78
2021/10/09 05:10:54;;;;;;;75.60;49.20;;;10.00;99.90;;;;;;5077755;28;38574;-77
2021/10/09 05:13:20;;;;;;;88.37;55.23;;;10.00;99.90;;;;;;5064877;28;38247;-77
2021/10/09 05:15:46;;;;;;;95.90;56.23;;;10.00;99.90;;;;;;5088452;27;37072;-77
2021/10/09 05:18:12;;;;;;;81.23;52.83;;;10.00;99.90;;;;;;5061697;28;36910;-77
2021/10/09 05:20:39;;;;;;;73.03;50.13;;;10.00;99.90;;;;;;5062973;28;39330;-78
2021/10/09 05:23:05;;;;;;;85.17;52.40;;;10.00;99.90;;;;;;5054765;28;37910;-77
2021/10/09 05:25:33;;;;;;;76.57;50.00;;;10.00;99.90;;;;;;5076768;28;39633;-78
2021/10/09 05:28:14;;;;;;;80.63;53.33;;;10.00;99.90;;;;;;5059006;28;38797;-77
2021/10/09 05:30:46;;;;;;;116.67;62.70;;;10.00;99.90;;;;;;5075012;28;48415;-77
2021/10/09 05:33:26;;;;;;;93.03;54.45;;;10.00;99.90;;;;;;5067268;28;39391;-77
2021/10/09 05:35:52;;;;;;;75.47;49.92;;;9.90;99.90;;;;;;5071465;28;39690;-78
2021/10/09 05:38:18;;;;;;;85.63;52.90;;;9.90;99.90;;;;;;5079299;28;38346;-78
2021/10/09 05:40:44;;;;;;;76.03;51.40;;;9.90;99.90;;;;;;5063246;28;39566;-77
2021/10/09 05:43:10;;;;;;;75.07;49.33;;;9.90;99.90;;;;;;5061071;28;36272;-78
2021/10/09 05:45:36;;;;;;;72.20;48.10;;;9.90;99.90;;;;;;5073488;28;39545;-78
2021/10/09 05:48:03;;;;;;;108.72;60.35;;;9.90;99.90;;;;;;5076090;28;39584;-78
2021/10/09 05:50:36;;;;;;;75.13;50.67;;;9.90;99.90;;;;;;5060045;28;38244;-78
2021/10/09 05:55:58;;;;;;;88.60;55.83;;;9.80;99.90;;;;;;5052021;28;39155;-78
2021/10/09 05:58:42;;;;;;;73.93;49.70;;;9.80;99.90;;;;;;5079413;28;38332;-78
2021/10/09 06:42:33;;;;;;;94.37;56.77;;;9.80;99.90;;;;;;5078202;28;39117;-78
2021/10/09 06:45:10;;;;;;;82.17;51.10;;;9.80;99.90;;;;;;5082716;28;38723;-78
2021/10/09 07:00:58;;;;;;;79.63;52.13;;;10.00;99.90;;;;;;5078843;28;39160;-77
2021/10/09 07:03:24;;;;;;;78.47;51.75;;;10.00;99.90;;;;;;5061805;28;38490;-77
2021/10/09 07:05:51;;;;;;;101.53;60.20;;;10.10;99.90;;;;;;5071542;28;38946;-77
2021/10/09 07:08:17;;;;;;;152.53;74.27;;;10.10;99.90;;;;;;5069575;28;37218;-77
2021/10/09 07:10:49;;;;;;;90.57;56.23;;;10.10;99.90;;;;;;5079761;28;37204;-78
2021/10/09 07:13:15;;;;;;;88.55;55.42;;;10.20;99.90;;;;;;5073709;28;40001;-77
2021/10/09 07:15:42;;;;;;;82.30;53.55;;;10.20;99.90;;;;;;5086400;27;39159;-77
2021/10/09 07:18:10;;;;;;;94.40;58.58;;;10.20;99.90;;;;;;5104784;27;39127;-77
2021/10/09 07:20:38;;;;;;;96.75;58.47;;;10.30;99.90;;;;;;5079790;28;38116;-77
2021/10/09 07:23:05;;;;;;;90.35;58.72;;;10.30;99.90;;;;;;5064904;28;37664;-77
2021/10/09 07:25:32;;;;;;;92.32;57.58;;;10.40;99.90;;;;;;5069953;28;37620;-77
2021/10/09 07:27:59;;;;;;;88.50;57.65;;;10.40;99.90;;;;;;5073535;28;36400;-77
2021/10/09 07:30:25;;;;;;;93.23;57.13;;;10.50;99.90;;;;;;5076172;28;39245;-77
2021/10/09 07:32:51;;;;;;;116.20;64.87;;;10.50;99.90;;;;;;5081175;28;39329;-77
2021/10/09 07:35:17;;;;;;;99.47;58.93;;;10.50;99.90;;;;;;5074145;28;40070;-77
2021/10/09 07:37:43;;;;;;;97.43;57.88;;;10.60;99.90;;;;;;5084566;28;37117;-77
2021/10/09 07:40:10;;;;;;;86.70;54.53;;;10.60;99.90;;;;;;5080600;28;38966;-77
2021/10/09 07:42:36;;;;;;;100.63;60.10;;;10.60;99.90;;;;;;5066225;28;37872;-78
2021/10/09 07:45:04;;;;;;;87.73;54.50;;;10.60;99.90;;;;;;5083145;28;37930;-76
2021/10/09 07:47:30;;;;;;;108.63;61.92;;;10.60;99.90;;;;;;5087434;28;48060;-77
2021/10/09 07:49:56;;;;;;;103.28;60.53;;;10.70;99.90;;;;;;5082114;28;38468;-78
2021/10/09 07:52:22;;;;;;;93.78;55.50;;;10.70;99.90;;;;;;5084406;28;38281;-77
2021/10/09 07:54:48;;;;;;;101.32;58.60;;;10.70;99.90;;;;;;5076915;28;38872;-78
2021/10/09 07:57:15;;;;;;;96.77;57.23;;;10.70;99.90;;;;;;5067193;28;36421;-77
2021/10/09 07:59:41;;;;;;;96.18;56.60;;;10.80;99.90;;;;;;5067195;28;40272;-77
2021/10/09 08:02:07;;;;;;;94.07;57.03;;;10.80;99.90;;;;;;5076133;28;38298;-77
2021/10/09 08:04:33;;;;;;;96.13;59.03;;;10.90;99.90;;;;;;5078321;28;38962;-77
2021/10/09 08:07:00;;;;;;;98.93;58.80;;;10.90;99.90;;;;;;5062277;28;36698;-79
2021/10/09 08:09:29;;;;;;;86.28;55.08;;;10.90;99.90;;;;;;5057527;28;38665;-78
2021/10/09 08:11:56;;;;;;;93.32;55.97;;;11.00;99.90;;;;;;5061002;28;37848;-79
2021/10/09 08:14:22;;;;;;;97.25;56.13;;;11.00;99.90;;;;;;5065352;28;37615;-78
2021/10/09 08:16:48;;;;;;;83.18;53.67;;;11.00;99.90;;;;;;5063368;28;37609;-78
2021/10/09 08:19:14;;;;;;;94.78;56.63;;;11.10;99.90;;;;;;5055806;28;40151;-79
2021/10/09 08:21:42;;;;;;;101.82;61.35;;;11.20;99.90;;;;;;5060882;28;37895;-79
2021/10/09 08:40:27;;;;;;;79.88;51.75;;;11.70;99.90;;;;;;5074719;28;48730;-79
2021/10/09 08:42:53;;;;;;;76.90;49.80;;;11.80;99.90;;;;;;5060012;28;40007;-79
2021/10/09 08:45:19;;;;;;;81.30;51.17;;;11.90;99.90;;;;;;5083163;28;37944;-79
2021/10/09 08:47:45;;;;;;;80.63;51.55;;;11.90;99.90;;;;;;5053183;28;35755;-79
2021/10/09 08:50:13;;;;;;;73.70;48.85;;;12.00;99.90;;;;;;5067202;28;40637;-79
2021/10/09 08:52:59;;;;;;;70.45;48.90;;;12.00;99.90;;;;;;5067657;28;39264;-79
2021/10/09 08:55:27;;;;;;;75.97;49.08;;;12.00;99.90;;;;;;5057492;28;39680;-78
2021/10/09 08:58:13;;;;;;;66.63;46.20;;;12.20;99.90;;;;;;5058360;28;39220;-79
2021/10/09 09:25:55;;;;;;;56.33;40.92;;;13.00;99.90;;;;;;5079473;28;38926;-76
2021/10/09 09:39:46;;;;;;;59.40;42.70;;;13.50;99.90;;;;;;5061697;28;48642;-77
2021/10/09 09:42:24;;;;;;;57.97;40.97;;;13.80;99.90;;;;;;5081349;28;37222;-77
2021/10/09 09:44:55;;;;;;;50.63;37.75;;;13.90;99.90;;;;;;5078109;28;38723;-77
2021/10/09 09:47:40;;;;;;;57.93;39.20;;;14.10;99.90;;;;;;5081268;28;38715;-77
2021/10/09 09:50:09;;;;;;;53.78;38.15;;;14.30;99.90;;;;;;5080234;28;38165;-75
2021/10/09 09:52:36;;;;;;;47.45;36.63;;;14.50;99.90;;;;;;5058173;28;37297;-76
2021/10/09 09:55:05;;;;;;;48.63;35.00;;;14.60;99.90;;;;;;5068109;28;40888;-76
2021/10/09 09:57:34;;;;;;;46.08;33.65;;;14.70;99.90;;;;;;5067326;28;48715;-76
2021/10/09 10:00:03;;;;;;;45.10;33.92;;;14.80;99.90;;;;;;5083840;28;39478;-78
2021/10/09 10:02:30;;;;;;;51.17;38.08;;;14.80;99.90;;;;;;5077268;28;48461;-79
2021/10/09 10:05:01;;;;;;;50.28;37.15;;;14.90;99.90;;;;;;5054523;28;42099;-78
2021/10/09 10:07:28;;;;;;;49.67;34.85;;;14.90;99.90;;;;;;5072860;28;48731;-78
2021/10/09 10:09:54;;;;;;;47.58;35.08;;;15.00;99.90;;;;;;5065169;28;38853;-80
2021/10/09 10:12:23;;;;;;;48.13;35.47;;;15.10;99.90;;;;;;5065762;28;37954;-78
2021/10/09 10:14:50;;;;;;;47.45;34.58;;;15.20;99.90;;;;;;5064775;28;38976;-78
2021/10/09 10:17:37;;;;;;;44.83;33.35;;;15.30;99.90;;;;;;5075131;28;38252;-79
2021/10/09 10:20:14;;;;;;;39.78;31.05;;;15.40;99.90;;;;;;5074965;28;37141;-78
2021/10/09 10:22:40;;;;;;;44.78;33.33;;;15.40;99.90;;;;;;5081534;28;48200;-79
2021/10/09 10:25:15;;;;;;;52.17;36.70;;;15.40;99.90;;;;;;5087427;28;38899;-78
2021/10/09 10:27:41;;;;;;;41.28;32.47;;;15.60;99.90;;;;;;5065623;28;39173;-78
2021/10/09 10:30:29;;;;;;;47.05;32.72;;;15.70;99.90;;;;;;5079664;28;36200;-81
2021/10/09 10:32:58;;;;;;;46.10;33.67;;;15.90;99.90;;;;;;5049610;28;36186;-81
2021/10/09 10:35:31;;;;;;;44.00;32.22;;;16.00;99.90;;;;;;5071113;28;38814;-81
2021/10/09 10:38:01;;;;;;;;;;;16.10;99.90;;;;;;5082145;28;38494;-81
2021/10/09 10:40:57;;;;;;;46.83;30.60;;;16.20;99.90;;;;;;5079981;28;49035;-81
2021/10/09 10:43:50;;;;;;;38.97;29.63;;;16.40;99.90;;;;;;5084970;28;36636;-81
2021/10/09 10:46:31;;;;;;;36.58;29.98;;;16.40;99.90;;;;;;5069333;28;39001;-81
2021/10/09 10:49:06;;;;;;;44.78;30.38;;;16.50;99.90;;;;;;5085088;28;38786;-81
2021/10/09 10:54:36;;;;;;;40.00;28.90;;;16.70;99.90;;;;;;5079693;28;38101;-82
2021/10/09 10:57:06;;;;;;;41.25;30.65;;;16.90;99.90;;;;;;5062031;27;39151;-81
2021/10/09 11:02:20;;;;;;;41.75;33.00;;;17.00;99.90;;;;;;5093442;28;38500;-82
2021/10/09 11:05:00;;;;;;;45.22;31.50;;;16.90;99.90;;;;;;5086570;28;37423;-83
2021/10/09 11:07:31;;;;;;;42.40;30.38;;;17.00;99.90;;;;;;5094293;28;37935;-82
2021/10/09 11:10:08;;;;;;;43.23;29.00;;;17.00;99.90;;;;;;5090637;28;38535;-81
2021/10/09 11:12:37;;;;;;;39.50;29.35;;;17.10;99.90;;;;;;5084274;28;48659;-81
2021/10/09 11:15:08;;;;;;;39.15;29.08;;;17.30;99.90;;;;;;5070741;28;36318;-79
2021/10/09 11:17:39;;;;;;;38.30;29.77;;;17.50;99.90;;;;;;5075500;28;47332;-81
2021/10/09 11:20:20;;;;;;;39.42;29.45;;;17.30;99.90;;;;;;5072741;28;37279;-82
2021/10/09 11:22:49;;;;;;;36.03;28.30;;;17.30;99.90;;;;;;5084973;28;38092;-81
2021/10/09 11:25:21;;;;;;;37.45;29.13;;;17.40;99.90;;;;;;5074302;27;37170;-82
2021/10/09 11:27:47;;;;;;;37.30;29.02;;;17.60;99.90;;;;;;5074813;28;37437;-82
2021/10/09 11:30:13;;;;;;;42.30;28.80;;;17.80;99.90;;;;;;5069621;28;38150;-82
2021/10/09 11:32:41;;;;;;;35.72;28.35;;;17.50;99.90;;;;;;5076863;28;36986;-84
2021/10/09 11:35:09;;;;;;;37.60;26.58;;;17.40;99.90;;;;;;5067711;28;36778;-81
2021/10/09 11:37:50;;;;;;;35.33;27.77;;;17.60;99.90;;;;;;5093199;28;38317;-80
2021/10/09 11:45:58;;;;;;;33.42;27.52;;;17.70;99.90;;;;;;5085389;28;39211;-82
2021/10/09 11:56:25;;;;;;;33.42;25.67;;;18.00;99.90;;;;;;5068498;28;37635;-81
2021/10/09 11:58:54;;;;;;;34.85;26.38;;;18.00;99.90;;;;;;5066896;28;38018;-81
2021/10/09 12:01:24;;;;;;;38.38;27.65;;;18.00;99.90;;;;;;5072874;28;39920;-82
2021/10/09 12:03:50;;;;;;;34.08;26.08;;;17.90;99.90;;;;;;5071375;28;38677;-83
2021/10/09 12:06:16;;;;;;;31.67;25.58;;;17.80;99.90;;;;;;5066971;28;38603;-80
2021/10/09 12:08:53;;;;;;;39.60;27.20;;;17.80;99.90;;;;;;5082608;28;38991;-81
2021/10/09 12:11:19;;;;;;;37.53;27.88;;;17.90;99.90;;;;;;5068903;28;39676;-81
2021/10/09 12:13:53;;;;;;;33.97;25.13;;;18.00;99.90;;;;;;5074196;28;38277;-81
2021/10/09 12:16:28;;;;;;;33.50;26.25;;;18.20;99.90;;;;;;5078273;28;38493;-81
2021/10/09 12:19:12;;;;;;;31.40;22.90;;;18.20;99.90;;;;;;5080566;28;39163;-79
2021/10/09 12:22:00;;;;;;;34.70;25.45;;;18.20;99.90;;;;;;5082229;28;44569;-81
2021/10/09 12:24:34;;;;;;;36.53;25.33;;;18.30;99.90;;;;;;5071712;28;39627;-79
2021/10/09 12:27:10;;;;;;;31.38;24.88;;;18.60;99.90;;;;;;5086209;28;37285;-78
2021/10/09 12:29:54;;;;;;;38.05;28.08;;;18.80;99.90;;;;;;5081134;28;49717;-79
2021/10/09 12:32:21;;;;;;;33.78;25.30;;;18.80;99.90;;;;;;5067453;28;40674;-80
2021/10/09 12:35:01;;;;;;;32.90;24.95;;;18.70;99.90;;;;;;5068450;28;39321;-80
2021/10/09 12:37:28;;;;;;;30.63;24.42;;;18.60;99.90;;;;;;5088701;28;48898;-79
2021/10/09 12:40:12;;;;;;;34.80;24.90;;;18.60;99.90;;;;;;5067983;28;39606;-81
2021/10/09 12:42:42;;;;;;;32.90;25.67;;;18.70;99.90;;;;;;5087391;28;48775;-79
2021/10/09 12:45:08;;;;;;;37.42;27.90;;;18.40;99.90;;;;;;5071484;28;38782;-79
2021/10/09 12:47:34;;;;;;;33.60;25.45;;;18.40;99.90;;;;;;5078550;28;37141;-79
2021/10/09 12:50:00;;;;;;;35.55;25.58;;;18.60;99.90;;;;;;5069279;28;39251;-79
2021/10/09 12:52:26;;;;;;;33.42;25.77;;;18.60;99.90;;;;;;5089369;28;47714;-79
2021/10/09 12:54:52;;;;;;;36.15;25.38;;;18.60;99.90;;;;;;5090033;28;38758;-80
2021/10/09 12:57:18;;;;;;;40.17;25.38;;;18.80;99.90;;;;;;5078373;28;37917;-79
2021/10/09 12:59:48;;;;;;;31.15;23.80;;;18.70;99.90;;;;;;5083314;28;36110;-80
2021/10/09 13:02:15;;;;;;;32.60;23.58;;;18.80;99.90;;;;;;5079101;28;39052;-80
2021/10/09 13:04:41;;;;;;;37.72;25.40;;;18.60;99.90;;;;;;5051689;28;39242;-80
2021/10/09 13:07:07;;;;;;;35.88;23.83;;;18.60;99.90;;;;;;5068657;28;38725;-79
2021/10/09 13:09:34;;;;;;;40.35;26.63;;;18.60;99.90;;;;;;5085132;28;38432;-79
2021/10/09 13:12:02;;;;;;;35.20;25.70;;;18.50;99.90;;;;;;5071899;28;38295;-80
2021/10/09 13:14:28;;;;;;;35.30;25.50;;;18.70;99.90;;;;;;5057306;28;47204;-80
2021/10/09 13:16:54;;;;;;;32.97;23.77;;;18.70;99.90;;;;;;5087841;28;37266;-79
2021/10/09 13:19:20;;;;;;;30.23;24.17;;;18.70;99.90;;;;;;5068164;28;39018;-78
2021/10/09 13:21:46;;;;;;;38.75;25.23;;;18.80;99.90;;;;;;5091419;28;38610;-78
2021/10/09 13:24:13;;;;;;;33.13;25.38;;;18.70;99.90;;;;;;5088124;28;38123;-79
2021/10/09 13:26:39;;;;;;;39.85;25.60;;;18.60;99.90;;;;;;5066143;28;37905;-80
2021/10/09 13:29:06;;;;;;;32.05;24.13;;;18.50;99.90;;;;;;5066925;28;39164;-79
2021/10/09 13:31:32;;;;;;;34.25;25.17;;;18.50;99.90;;;;;;5077730;28;38542;-80
2021/10/09 13:33:59;;;;;;;32.78;25.20;;;18.70;99.90;;;;;;5064939;28;38891;-79
2021/10/09 13:36:26;;;;;;;37.75;26.73;;;18.70;99.90;;;;;;5070221;28;37606;-81
2021/10/09 13:38:53;;;;;;;32.40;23.85;;;18.60;99.90;;;;;;5087841;28;38918;-80
2021/10/09 13:41:19;;;;;;;31.58;23.55;;;18.60;99.90;;;;;;5093268;28;39158;-80
2021/10/09 13:43:46;;;;;;;37.03;26.27;;;18.70;99.90;;;;;;5097602;28;38036;-80
2021/10/09 13:46:13;;;;;;;29.17;24.48;;;18.40;99.90;;;;;;5069474;28;38886;-79
2021/10/09 13:48:41;;;;;;;31.20;24.55;;;18.50;99.90;;;;;;5057911;28;40272;-80
2021/10/09 13:51:12;;;;;;;31.95;24.02;;;18.50;99.90;;;;;;5061548;28;39667;-79
2021/10/09 13:53:42;;;;;;;35.97;27.75;;;18.40;99.90;;;;;;5076578;28;38079;-79
2021/10/09 13:56:09;;;;;;;45.63;31.75;;;18.50;99.90;;;;;;5059819;28;38082;-79
2021/10/09 13:58:35;;;;;;;38.88;29.48;;;18.40;99.90;;;;;;5061169;28;40826;-79
2021/10/09 14:01:02;;;;;;;35.30;26.73;;;18.40;99.90;;;;;;5060851;28;39330;-77
2021/10/09 14:03:31;;;;;;;36.30;25.05;;;18.40;99.90;;;;;;5085702;28;37280;-80
2021/10/09 14:05:58;;;;;;;34.55;25.02;;;18.40;99.90;;;;;;5073446;28;37737;-79
2021/10/09 14:08:25;;;;;;;37.17;25.30;;;18.20;99.90;;;;;;5072301;28;39373;-80
2021/10/09 14:10:52;;;;;;;34.63;24.98;;;18.10;99.90;;;;;;5076260;28;38604;-83
2021/10/09 14:13:19;;;;;;;37.70;26.50;;;18.10;99.90;;;;;;5080869;28;39160;-81
2021/10/09 14:15:45;;;;;;;37.88;27.75;;;18.10;99.90;;;;;;5065214;28;36600;-82
2021/10/09 14:18:11;;;;;;;36.45;25.73;;;18.10;99.90;;;;;;5091276;28;38684;-83
2021/10/09 14:20:37;;;;;;;35.92;25.48;;;17.90;99.90;;;;;;5064862;28;39135;-80
2021/10/09 14:23:03;;;;;;;38.35;26.73;;;17.80;99.90;;;;;;5075576;28;38559;-81
2021/10/09 14:25:32;;;;;;;35.65;26.33;;;17.80;99.90;;;;;;5087459;28;37872;-82
2021/10/09 14:28:00;;;;;;;36.88;26.83;;;17.70;99.90;;;;;;5066610;28;39502;-81
2021/10/09 14:30:26;;;;;;;33.03;25.20;;;17.80;99.90;;;;;;5070773;27;37267;-81
2021/10/09 14:32:52;;;;;;;32.65;24.60;;;17.80;99.90;;;;;;5079985;28;38089;-81
2021/10/09 14:35:18;;;;;;;34.55;23.85;;;17.80;99.90;;;;;;5082851;28;37528;-80
2021/10/09 14:37:44;;;;;;;35.65;25.35;;;17.90;99.90;;;;;;5067814;28;39109;-81
2021/10/09 14:40:10;;;;;;;33.53;26.00;;;17.80;99.90;;;;;;5061723;28;39392;-80
2021/10/09 14:42:36;;;;;;;32.15;25.10;;;17.80;99.90;;;;;;5063487;28;37416;-81
2021/10/09 14:45:03;;;;;;;33.13;24.45;;;17.70;99.90;;;;;;5075681;28;37539;-80
2021/10/09 14:47:42;;;;;;;32.95;24.60;;;17.80;99.90;;;;;;5061107;28;40736;-80
2021/10/09 14:50:18;;;;;;;36.58;24.30;;;17.80;99.90;;;;;;5061665;28;38293;-79
2021/10/09 15:20:01;;;;;;;78.97;46.78;;;17.40;99.90;;;;;;5047567;28;39523;-80
2021/10/09 15:22:27;;;;;;;47.03;32.38;;;17.40;99.90;;;;;;5062500;28;39384;-82
2021/10/09 15:24:53;;;;;;;32.38;24.92;;;17.20;99.90;;;;;;5086612;28;37956;-81
2021/10/09 15:27:19;;;;;;;33.97;25.27;;;17.20;99.90;;;;;;5080090;28;37127;-80